Davenport, Arkansas
Current Conditions -  °F | °C
As of 7:56 AM on Thursday 29 Jan 2015 (Local Time) from KSRC Reporting Station
Clear Clear  
Wind Chill: 48°   Ceiling: Unl
Heat Index: 48°   Visibility: 10mi
Dew Point: 42°   Wind: 3mph
Humidity: 80%   Direction: 210°SSW
Pressure: 30.07"   Gusts: NA
Location:  35.4331°N, 91.7663°W
Report Text: KSRC 291356Z AUTO 21003KT 10SM CLR 09/06 A3007 RMK AO2 SLP190 T00890056 TSNO
Loading
Personal Weather Stations






























Interactive Weather Map New forecast layout! Learn more

10-Day Weather Forecast

Advertisements
Track Severe Weather on mobile